Time;durP1;ratioP1;P1;durP2;ratioP2;P2;SDS_P1;SDS_P2;PMS_P1;PMS_P2;Temp;Humidity;BMP_temperature;BMP_pressure;BME280_temperature;BME280_humidity;BME280_pressure;Samples;Min_cycle;Max_cycle;Signal;HPM_P1;HPM_P2
2023/06/28 00:00:22;;;;;;;4.23;1.77;;;;;;;;;;5050037;28;20039;-72
2023/06/28 00:02:47;;;;;;;3.13;1.90;;;;;;;;;;5050054;28;20326;-72
2023/06/28 00:05:13;;;;;;;9.47;1.57;;;;;;;;;;5048205;28;20620;-72
2023/06/28 00:07:39;;;;;;;5.18;1.73;;;;;;;;;;5047898;28;20610;-72
2023/06/28 00:10:04;;;;;;;6.32;1.58;;;;;;;;;;5048917;28;20033;-72
2023/06/28 00:12:30;;;;;;;3.33;1.60;;;;;;;;;;5048861;28;20140;-72
2023/06/28 00:14:55;;;;;;;5.05;1.42;;;;;;;;;;5048733;28;20059;-72
2023/06/28 00:17:27;;;;;;;10.02;1.40;;;;;;;;;;5047198;28;20021;-72
2023/06/28 00:19:53;;;;;;;7.28;1.48;;;;;;;;;;5048824;28;20098;-72
2023/06/28 00:22:18;;;;;;;6.20;2.75;;;;;;;;;;5046414;28;20437;-72
2023/06/28 00:24:43;;;;;;;3.93;1.40;;;;;;;;;;5049031;28;20395;-72
2023/06/28 00:27:11;;;;;;;6.20;1.50;;;;;;;;;;5049402;28;20330;-72
2023/06/28 00:29:36;;;;;;;5.10;1.63;;;;;;;;;;5051263;28;20398;-72
2023/06/28 00:32:01;;;;;;;4.60;1.60;;;;;;;;;;5048222;28;20092;-72
2023/06/28 00:34:27;;;;;;;3.40;1.55;;;;;;;;;;5047654;28;20122;-72
2023/06/28 00:36:52;;;;;;;6.40;1.53;;;;;;;;;;5052753;28;20016;-72
2023/06/28 00:39:17;;;;;;;7.35;3.45;;;;;;;;;;5051938;28;20820;-72
2023/06/28 00:41:42;;;;;;;4.27;1.40;;;;;;;;;;5045863;28;20025;-72
2023/06/28 00:44:07;;;;;;;4.93;1.40;;;;;;;;;;5053383;28;20247;-72
2023/06/28 00:46:34;;;;;;;4.85;1.50;;;;;;;;;;5051811;28;20270;-72
2023/06/28 00:48:59;;;;;;;5.38;1.40;;;;;;;;;;5050699;28;20027;-72
2023/06/28 00:51:25;;;;;;;10.00;1.73;;;;;;;;;;5050253;28;20100;-72
2023/06/28 00:53:50;;;;;;;3.80;1.27;;;;;;;;;;5049633;28;20079;-72
2023/06/28 00:56:15;;;;;;;5.70;1.58;;;;;;;;;;5051005;28;20041;-72
2023/06/28 00:58:41;;;;;;;10.60;1.75;;;;;;;;;;5053021;28;20032;-72
2023/06/28 01:01:06;;;;;;;12.70;1.50;;;;;;;;;;5052101;28;20692;-72
2023/06/28 01:03:31;;;;;;;9.10;1.35;;;;;;;;;;5051739;28;20501;-72
2023/06/28 01:05:58;;;;;;;9.73;2.07;;;;;;;;;;5048059;28;20066;-72
2023/06/28 01:08:24;;;;;;;5.95;1.85;;;;;;;;;;5052590;28;20679;-72
2023/06/28 01:10:50;;;;;;;8.32;1.60;;;;;;;;;;5052294;28;20036;-72
2023/06/28 01:13:16;;;;;;;6.00;1.48;;;;;;;;;;5052641;28;20025;-72
2023/06/28 01:15:41;;;;;;;6.35;1.60;;;;;;;;;;5046533;28;20500;-72
2023/06/28 01:18:06;;;;;;;10.70;1.83;;;;;;;;;;5050142;28;20039;-72
2023/06/28 01:20:31;;;;;;;6.07;1.70;;;;;;;;;;5052546;28;20637;-72
2023/06/28 01:22:57;;;;;;;6.32;1.73;;;;;;;;;;5050235;28;20278;-72
2023/06/28 01:25:22;;;;;;;6.28;1.98;;;;;;;;;;5055120;28;20100;-72
2023/06/28 01:27:48;;;;;;;4.57;1.58;;;;;;;;;;5052589;28;20017;-72
2023/06/28 01:30:17;;;;;;;7.47;1.52;;;;;;;;;;5049276;28;20071;-72
2023/06/28 01:32:43;;;;;;;5.10;1.67;;;;;;;;;;5052115;28;20009;-72
2023/06/28 01:35:09;;;;;;;6.50;1.55;;;;;;;;;;5048527;28;20463;-72
2023/06/28 01:37:34;;;;;;;7.47;1.77;;;;;;;;;;5050102;28;20115;-72
2023/06/28 01:40:00;;;;;;;9.23;1.73;;;;;;;;;;5050103;28;20466;-72
2023/06/28 01:42:26;;;;;;;5.28;1.75;;;;;;;;;;5049449;28;20363;-72
2023/06/28 01:44:51;;;;;;;5.43;1.55;;;;;;;;;;5049569;28;20070;-72
2023/06/28 01:47:16;;;;;;;4.93;1.90;;;;;;;;;;5051278;28;20119;-72
2023/06/28 01:49:41;;;;;;;16.50;2.27;;;;;;;;;;5051492;28;20016;-72
2023/06/28 01:52:06;;;;;;;14.52;2.63;;;;;;;;;;5048673;28;20264;-72
2023/06/28 01:54:33;;;;;;;4.65;1.73;;;;;;;;;;5050430;28;20028;-72
2023/06/28 01:56:58;;;;;;;5.10;1.88;;;;;;;;;;5050085;28;20021;-72
2023/06/28 01:59:23;;;;;;;7.00;1.93;;;;;;;;;;5050432;28;20401;-72
2023/06/28 02:01:48;;;;;;;10.13;2.20;;;;;;;;;;5050664;28;20337;-72
2023/06/28 02:04:13;;;;;;;5.60;2.00;;;;;;;;;;5045061;28;20304;-72
2023/06/28 02:06:40;;;;;;;6.83;2.13;;;;;;;;;;5047117;28;20744;-72
2023/06/28 02:09:05;;;;;;;8.65;2.05;;;;;;;;;;5050632;28;20811;-72
2023/06/28 02:11:30;;;;;;;4.30;1.83;;;;;;;;;;5051736;28;20109;-72
2023/06/28 02:13:55;;;;;;;6.13;2.90;;;;;;;;;;5050803;28;20329;-72
2023/06/28 02:16:22;;;;;;;6.93;1.50;;;;;;;;;;5048231;28;20768;-72
2023/06/28 02:18:49;;;;;;;7.80;1.90;;;;;;;;;;5050390;28;20295;-72
2023/06/28 02:21:14;;;;;;;9.82;2.25;;;;;;;;;;5051266;28;20492;-72
2023/06/28 02:23:39;;;;;;;10.70;2.22;;;;;;;;;;5050539;28;20048;-72
2023/06/28 02:26:05;;;;;;;8.90;2.30;;;;;;;;;;5049297;28;20013;-72
2023/06/28 02:28:30;;;;;;;8.23;1.73;;;;;;;;;;5049344;28;20350;-72
2023/06/28 02:30:55;;;;;;;4.97;1.80;;;;;;;;;;5049196;28;20032;-72
2023/06/28 02:33:21;;;;;;;7.07;2.00;;;;;;;;;;5050975;28;20147;-72
2023/06/28 02:35:46;;;;;;;8.97;2.43;;;;;;;;;;5046627;28;20033;-72
2023/06/28 02:38:11;;;;;;;5.25;1.83;;;;;;;;;;5046135;28;20361;-72
2023/06/28 02:40:36;;;;;;;7.50;2.10;;;;;;;;;;5050972;28;20024;-72
2023/06/28 02:43:01;;;;;;;7.50;1.77;;;;;;;;;;5051128;28;20025;-72
2023/06/28 02:45:26;;;;;;;7.10;2.07;;;;;;;;;;5050015;28;20274;-72
2023/06/28 02:47:52;;;;;;;7.90;1.73;;;;;;;;;;5047081;28;20704;-72
2023/06/28 02:50:17;;;;;;;6.57;2.20;;;;;;;;;;5050041;28;20036;-72
2023/06/28 02:52:42;;;;;;;9.43;2.08;;;;;;;;;;5049948;28;20271;-72
2023/06/28 02:55:07;;;;;;;9.15;1.90;;;;;;;;;;5050829;28;20021;-72
2023/06/28 02:57:33;;;;;;;14.32;2.42;;;;;;;;;;5050405;28;20017;-72
2023/06/28 02:59:58;;;;;;;8.30;2.15;;;;;;;;;;5048321;28;20024;-72
2023/06/28 03:02:23;;;;;;;10.40;2.30;;;;;;;;;;5050603;28;20371;-72
2023/06/28 03:04:48;;;;;;;7.68;1.80;;;;;;;;;;5049777;28;20286;-72
2023/06/28 03:07:14;;;;;;;7.23;2.30;;;;;;;;;;5049439;28;20592;-72
2023/06/28 03:09:39;;;;;;;7.03;2.00;;;;;;;;;;5045773;28;20247;-72
2023/06/28 03:12:05;;;;;;;8.80;2.17;;;;;;;;;;5048547;28;20031;-72
2023/06/28 03:14:30;;;;;;;12.68;2.50;;;;;;;;;;5049661;28;20283;-72
2023/06/28 03:16:55;;;;;;;7.47;1.95;;;;;;;;;;5050394;28;20096;-72
2023/06/28 03:19:20;;;;;;;8.10;2.37;;;;;;;;;;5049692;28;20101;-72
2023/06/28 03:21:45;;;;;;;8.38;2.03;;;;;;;;;;5049685;28;20337;-73
2023/06/28 03:24:11;;;;;;;5.87;1.90;;;;;;;;;;5045670;28;20393;-73
2023/06/28 03:26:36;;;;;;;8.90;2.07;;;;;;;;;;5050711;28;20287;-72
2023/06/28 03:29:01;;;;;;;5.57;2.07;;;;;;;;;;5049658;28;20278;-72
2023/06/28 03:31:26;;;;;;;6.70;1.90;;;;;;;;;;5050638;28;20594;-72
2023/06/28 03:33:51;;;;;;;7.40;1.77;;;;;;;;;;5048474;28;22102;-72
2023/06/28 03:36:16;;;;;;;5.83;1.77;;;;;;;;;;5048516;28;20283;-72
2023/06/28 03:38:42;;;;;;;3.57;1.80;;;;;;;;;;5050461;28;20405;-72
2023/06/28 03:41:07;;;;;;;4.57;2.40;;;;;;;;;;5046468;28;20826;-72
2023/06/28 03:43:32;;;;;;;8.93;2.25;;;;;;;;;;5047672;28;20293;-72
2023/06/28 03:45:57;;;;;;;7.18;2.35;;;;;;;;;;5049320;28;20021;-72
2023/06/28 03:48:22;;;;;;;6.17;1.80;;;;;;;;;;5044555;28;20022;-72
2023/06/28 03:50:48;;;;;;;11.83;2.47;;;;;;;;;;5049966;28;20251;-72
2023/06/28 03:53:13;;;;;;;7.93;2.10;;;;;;;;;;5049577;28;20263;-72
2023/06/28 03:55:38;;;;;;;8.67;2.17;;;;;;;;;;5045875;28;20056;-72
2023/06/28 03:58:03;;;;;;;5.00;1.60;;;;;;;;;;5047802;28;20367;-72
2023/06/28 04:00:28;;;;;;;10.47;1.83;;;;;;;;;;5047922;28;20283;-73
2023/06/28 04:02:54;;;;;;;10.27;2.05;;;;;;;;;;5044597;28;20942;-73
2023/06/28 04:05:19;;;;;;;8.77;2.50;;;;;;;;;;5048034;28;20021;-73
2023/06/28 04:07:44;;;;;;;6.90;2.00;;;;;;;;;;5049338;28;20358;-73
2023/06/28 04:10:09;;;;;;;6.53;2.00;;;;;;;;;;5049907;28;20255;-73
2023/06/28 04:12:35;;;;;;;11.15;2.35;;;;;;;;;;5051422;28;20648;-73
2023/06/28 04:15:01;;;;;;;4.17;1.80;;;;;;;;;;5051094;28;20017;-73
2023/06/28 04:17:26;;;;;;;4.80;1.65;;;;;;;;;;5051709;28;20275;-73
2023/06/28 04:19:51;;;;;;;7.78;2.03;;;;;;;;;;5051231;28;20036;-73
2023/06/28 04:22:16;;;;;;;8.77;1.83;;;;;;;;;;5051685;28;20056;-73
2023/06/28 04:24:42;;;;;;;5.07;2.10;;;;;;;;;;5051642;28;20321;-73
2023/06/28 04:27:09;;;;;;;8.57;2.30;;;;;;;;;;5049967;28;20025;-73
2023/06/28 04:29:34;;;;;;;6.97;2.20;;;;;;;;;;5042951;28;20271;-73
2023/06/28 04:32:02;;;;;;;3.93;1.93;;;;;;;;;;5050142;28;20028;-73
2023/06/28 04:34:28;;;;;;;5.40;2.10;;;;;;;;;;5049165;28;20359;-73
2023/06/28 04:36:55;;;;;;;12.65;2.28;;;;;;;;;;5052659;28;20108;-73
2023/06/28 04:39:21;;;;;;;8.07;2.15;;;;;;;;;;5050608;28;20386;-72
2023/06/28 04:41:47;;;;;;;5.45;2.38;;;;;;;;;;5052423;28;20017;-72
2023/06/28 04:44:14;;;;;;;6.05;2.22;;;;;;;;;;5049179;28;20043;-72
2023/06/28 04:46:44;;;;;;;6.05;2.20;;;;;;;;;;5052968;28;20074;-72
2023/06/28 04:49:09;;;;;;;7.40;2.60;;;;;;;;;;5049194;28;20017;-72
2023/06/28 04:51:34;;;;;;;6.90;2.47;;;;;;;;;;5051528;28;20074;-72
2023/06/28 04:53:59;;;;;;;8.23;2.50;;;;;;;;;;5051995;28;20306;-72
2023/06/28 04:56:25;;;;;;;7.50;2.38;;;;;;;;;;5045158;28;20275;-72
2023/06/28 04:58:50;;;;;;;17.35;2.38;;;;;;;;;;5048810;28;20025;-72
2023/06/28 05:01:16;;;;;;;6.30;2.20;;;;;;;;;;5052260;28;20589;-72
2023/06/28 05:03:41;;;;;;;13.80;2.53;;;;;;;;;;5051623;28;20275;-72
2023/06/28 05:06:08;;;;;;;7.95;2.35;;;;;;;;;;5047482;28;20017;-72
2023/06/28 05:08:34;;;;;;;9.00;2.55;;;;;;;;;;5051236;28;20033;-72
2023/06/28 05:11:00;;;;;;;7.18;3.40;;;;;;;;;;5050948;28;20079;-73
2023/06/28 05:13:25;;;;;;;6.75;2.35;;;;;;;;;;5047581;28;20074;-72
2023/06/28 05:15:50;;;;;;;9.23;2.45;;;;;;;;;;5052125;28;20440;-72
2023/06/28 05:18:16;;;;;;;7.45;2.83;;;;;;;;;;5050729;28;20013;-72
2023/06/28 05:20:42;;;;;;;10.82;2.78;;;;;;;;;;5050389;28;20070;-72
2023/06/28 05:23:11;;;;;;;10.30;3.13;;;;;;;;;;5051097;28;20417;-72
2023/06/28 05:25:40;;;;;;;6.35;2.80;;;;;;;;;;5050808;28;20032;-72
2023/06/28 05:28:05;;;;;;;8.68;2.70;;;;;;;;;;5046449;28;20025;-72
2023/06/28 05:30:31;;;;;;;8.32;3.00;;;;;;;;;;5048587;28;20115;-72
2023/06/28 05:32:56;;;;;;;12.45;3.25;;;;;;;;;;5046517;28;20021;-72
2023/06/28 05:35:21;;;;;;;7.90;2.90;;;;;;;;;;5046967;28;20037;-73
2023/06/28 05:37:46;;;;;;;6.78;2.65;;;;;;;;;;5048115;28;20043;-72
2023/06/28 05:40:12;;;;;;;15.30;3.03;;;;;;;;;;5047273;28;20032;-72
2023/06/28 05:42:37;;;;;;;14.52;3.45;;;;;;;;;;5047221;28;20354;-73
2023/06/28 05:45:03;;;;;;;15.87;3.50;;;;;;;;;;5043043;28;20080;-72
2023/06/28 05:47:28;;;;;;;13.07;3.65;;;;;;;;;;5049570;28;20303;-72
2023/06/28 05:49:53;;;;;;;16.37;3.80;;;;;;;;;;5052107;28;20025;-72
2023/06/28 05:52:18;;;;;;;10.40;3.30;;;;;;;;;;5051167;28;20786;-73
2023/06/28 05:54:43;;;;;;;9.47;3.10;;;;;;;;;;5052131;28;20308;-72
2023/06/28 05:57:09;;;;;;;12.95;3.53;;;;;;;;;;5047231;28;20272;-72
2023/06/28 05:59:34;;;;;;;12.83;3.90;;;;;;;;;;5049552;28;20020;-72
2023/06/28 06:01:59;;;;;;;11.10;4.43;;;;;;;;;;5046453;28;21331;-72
2023/06/28 06:04:24;;;;;;;13.73;5.03;;;;;;;;;;5047899;28;20025;-72
2023/06/28 06:06:50;;;;;;;19.85;5.68;;;;;;;;;;5050251;28;20052;-72
2023/06/28 06:09:15;;;;;;;14.13;5.25;;;;;;;;;;5047710;28;20602;-72
2023/06/28 06:11:40;;;;;;;11.95;3.97;;;;;;;;;;5044294;28;20013;-73
2023/06/28 06:14:05;;;;;;;15.37;4.83;;;;;;;;;;5045967;28;20033;-73
2023/06/28 06:16:30;;;;;;;9.95;3.30;;;;;;;;;;5050280;28;20264;-72
2023/06/28 06:18:56;;;;;;;8.27;2.50;;;;;;;;;;5047768;28;20013;-72
2023/06/28 06:21:21;;;;;;;13.00;3.17;;;;;;;;;;5049137;28;20025;-72
2023/06/28 06:23:46;;;;;;;9.87;3.33;;;;;;;;;;5051103;28;20425;-72
2023/06/28 06:26:11;;;;;;;13.65;3.78;;;;;;;;;;5046881;28;20290;-72
2023/06/28 06:28:36;;;;;;;11.90;2.93;;;;;;;;;;5048000;28;20013;-72
2023/06/28 06:31:01;;;;;;;9.67;3.97;;;;;;;;;;5050677;28;20802;-72
2023/06/28 06:33:27;;;;;;;13.70;2.77;;;;;;;;;;5048962;28;20274;-72
2023/06/28 06:35:52;;;;;;;8.80;2.70;;;;;;;;;;5047404;28;20297;-72
2023/06/28 06:38:17;;;;;;;13.07;2.77;;;;;;;;;;5047786;28;20033;-72
2023/06/28 06:40:44;;;;;;;15.73;3.08;;;;;;;;;;5048931;28;20686;-73
2023/06/28 06:43:10;;;;;;;15.25;2.72;;;;;;;;;;5050017;28;20013;-72
2023/06/28 06:45:35;;;;;;;12.73;2.27;;;;;;;;;;5050100;28;20027;-72
2023/06/28 06:48:00;;;;;;;5.93;2.22;;;;;;;;;;5050764;28;20017;-72
2023/06/28 06:50:25;;;;;;;7.50;2.70;;;;;;;;;;5048564;28;20121;-72
2023/06/28 06:52:50;;;;;;;8.13;2.10;;;;;;;;;;5049551;28;20617;-72
2023/06/28 06:55:16;;;;;;;14.95;2.40;;;;;;;;;;5044827;28;20013;-72
2023/06/28 06:57:41;;;;;;;16.70;3.00;;;;;;;;;;5052210;28;20036;-72
2023/06/28 07:00:08;;;;;;;8.20;2.50;;;;;;;;;;5050288;28;20279;-72
2023/06/28 07:02:33;;;;;;;20.17;2.65;;;;;;;;;;5048689;28;20266;-72
2023/06/28 07:04:59;;;;;;;6.13;2.40;;;;;;;;;;5048634;28;20078;-72
2023/06/28 07:07:24;;;;;;;6.37;1.80;;;;;;;;;;5048066;28;20294;-72
2023/06/28 07:09:49;;;;;;;6.13;1.80;;;;;;;;;;5045857;28;20322;-72
2023/06/28 07:12:14;;;;;;;7.63;1.77;;;;;;;;;;5049150;28;20386;-72
2023/06/28 07:14:40;;;;;;;8.82;2.00;;;;;;;;;;5049895;28;20651;-72
2023/06/28 07:17:05;;;;;;;9.93;1.63;;;;;;;;;;5049692;28;20444;-72
2023/06/28 07:19:30;;;;;;;5.43;1.80;;;;;;;;;;5046223;28;20017;-72
2023/06/28 07:21:55;;;;;;;7.07;1.63;;;;;;;;;;5049212;28;20024;-72
2023/06/28 07:24:20;;;;;;;9.70;1.73;;;;;;;;;;5048168;28;20268;-72
2023/06/28 07:26:46;;;;;;;7.53;1.97;;;;;;;;;;5045709;28;20317;-72
2023/06/28 07:29:11;;;;;;;11.80;1.80;;;;;;;;;;5048240;28;20763;-72
2023/06/28 07:31:36;;;;;;;7.93;1.63;;;;;;;;;;5044392;28;20021;-72
2023/06/28 07:34:04;;;;;;;8.23;1.80;;;;;;;;;;5047272;28;20044;-72
2023/06/28 07:36:30;;;;;;;8.27;2.67;;;;;;;;;;5048015;28;20017;-72
2023/06/28 07:38:55;;;;;;;5.03;2.40;;;;;;;;;;5047297;28;20032;-72
2023/06/28 07:41:20;;;;;;;13.20;2.00;;;;;;;;;;5049242;28;20029;-72
2023/06/28 07:43:45;;;;;;;8.60;2.20;;;;;;;;;;5047116;28;20410;-72
2023/06/28 07:46:10;;;;;;;5.80;2.13;;;;;;;;;;5041746;28;20657;-72
2023/06/28 07:48:36;;;;;;;8.40;1.87;;;;;;;;;;5045948;28;20272;-72
2023/06/28 07:51:01;;;;;;;11.57;2.08;;;;;;;;;;5048595;28;20329;-72
2023/06/28 07:53:26;;;;;;;17.25;2.67;;;;;;;;;;5045365;28;20037;-72
2023/06/28 07:55:52;;;;;;;11.77;2.07;;;;;;;;;;5048189;28;20033;-72
2023/06/28 07:58:17;;;;;;;7.63;1.57;;;;;;;;;;5045942;28;20274;-72
2023/06/28 08:00:42;;;;;;;9.07;2.13;;;;;;;;;;5046279;28;20306;-72
2023/06/28 08:03:07;;;;;;;4.78;2.08;;;;;;;;;;5047804;28;20945;-72
2023/06/28 08:05:32;;;;;;;5.72;1.92;;;;;;;;;;5046743;28;20017;-72
2023/06/28 08:07:58;;;;;;;7.32;1.98;;;;;;;;;;5047203;28;20405;-72
2023/06/28 08:10:23;;;;;;;3.50;1.33;;;;;;;;;;5047553;28;20452;-72
2023/06/28 08:12:49;;;;;;;8.55;3.33;;;;;;;;;;5043870;28;20055;-72
2023/06/28 08:15:14;;;;;;;12.15;3.00;;;;;;;;;;5047780;28;20025;-72
2023/06/28 08:17:40;;;;;;;14.03;2.90;;;;;;;;;;5046416;28;20024;-72
2023/06/28 08:20:06;;;;;;;6.37;2.33;;;;;;;;;;5047263;28;20330;-72
2023/06/28 08:22:31;;;;;;;10.18;2.80;;;;;;;;;;5046949;28;20274;-72
2023/06/28 08:24:56;;;;;;;9.30;2.33;;;;;;;;;;5048790;28;20071;-72
2023/06/28 08:27:21;;;;;;;6.87;1.93;;;;;;;;;;5046306;28;20021;-72
2023/06/28 08:29:46;;;;;;;8.40;2.13;;;;;;;;;;5048413;28;20617;-72
2023/06/28 08:32:12;;;;;;;5.45;1.90;;;;;;;;;;5048305;28;20352;-72
2023/06/28 08:34:37;;;;;;;13.65;2.28;;;;;;;;;;5048128;28;20032;-72
2023/06/28 08:37:03;;;;;;;8.18;2.03;;;;;;;;;;5048823;28;20052;-72
2023/06/28 08:39:29;;;;;;;10.13;2.00;;;;;;;;;;5048570;28;20021;-72
2023/06/28 08:41:54;;;;;;;4.20;1.70;;;;;;;;;;5047935;28;20017;-72
2023/06/28 08:44:22;;;;;;;9.80;1.75;;;;;;;;;;5046494;28;20079;-72
2023/06/28 08:46:48;;;;;;;7.25;2.08;;;;;;;;;;5048843;28;20471;-72
2023/06/28 08:49:14;;;;;;;7.70;2.35;;;;;;;;;;5046656;28;20017;-72
2023/06/28 08:51:39;;;;;;;8.65;2.35;;;;;;;;;;5048637;28;20021;-72
2023/06/28 08:54:05;;;;;;;5.90;2.42;;;;;;;;;;5049057;28;20486;-72
2023/06/28 08:56:30;;;;;;;8.40;2.42;;;;;;;;;;5048484;28;20044;-72
2023/06/28 08:58:56;;;;;;;7.18;1.80;;;;;;;;;;5052282;28;20482;-72
2023/06/28 09:01:24;;;;;;;9.27;1.92;;;;;;;;;;5052212;28;20433;-72
2023/06/28 09:03:49;;;;;;;5.05;1.65;;;;;;;;;;5051493;28;20092;-72
2023/06/28 09:06:14;;;;;;;9.27;1.92;;;;;;;;;;5047258;28;20155;-72
2023/06/28 09:08:40;;;;;;;6.43;2.35;;;;;;;;;;5051964;28;20104;-72
2023/06/28 09:11:06;;;;;;;6.25;1.95;;;;;;;;;;5049646;28;20377;-72
2023/06/28 09:13:31;;;;;;;7.45;1.90;;;;;;;;;;5051210;28;20035;-72
2023/06/28 09:15:57;;;;;;;8.30;2.72;;;;;;;;;;5051975;28;20659;-72
2023/06/28 09:18:22;;;;;;;6.57;3.40;;;;;;;;;;5051561;28;20040;-72
2023/06/28 09:20:49;;;;;;;10.88;3.95;;;;;;;;;;5046931;28;20059;-72
2023/06/28 09:23:21;;;;;;;6.80;2.53;;;;;;;;;;5049534;28;20009;-72
2023/06/28 09:25:48;;;;;;;10.07;2.13;;;;;;;;;;5048502;28;20017;-72
2023/06/28 09:28:14;;;;;;;8.75;1.98;;;;;;;;;;5048113;28;20012;-72
2023/06/28 09:30:39;;;;;;;8.37;1.53;;;;;;;;;;5049308;28;20027;-72
2023/06/28 09:33:04;;;;;;;6.80;2.07;;;;;;;;;;5048326;28;20271;-72
2023/06/28 09:35:29;;;;;;;5.37;1.50;;;;;;;;;;5048812;28;20263;-72
2023/06/28 09:37:55;;;;;;;4.67;1.80;;;;;;;;;;5050169;28;20033;-72
2023/06/28 09:40:21;;;;;;;5.18;1.42;;;;;;;;;;5044387;28;20031;-72
2023/06/28 09:42:47;;;;;;;4.47;1.75;;;;;;;;;;5047634;28;20016;-72
2023/06/28 09:45:26;;;;;;;5.25;2.03;;;;;;;;;;5048323;28;20104;-72
2023/06/28 09:47:56;;;;;;;7.10;2.05;;;;;;;;;;5050314;28;20023;-72
2023/06/28 09:50:21;;;;;;;5.22;1.73;;;;;;;;;;5049954;28;20534;-72
2023/06/28 09:52:46;;;;;;;9.63;1.98;;;;;;;;;;5048852;28;20037;-72
2023/06/28 09:55:12;;;;;;;6.10;2.20;;;;;;;;;;5049521;28;20632;-72
2023/06/28 09:57:37;;;;;;;12.90;2.23;;;;;;;;;;5048112;28;20292;-72
2023/06/28 10:00:05;;;;;;;5.75;2.15;;;;;;;;;;5049730;28;20021;-72
2023/06/28 10:02:31;;;;;;;5.07;1.75;;;;;;;;;;5047062;28;20374;-72
2023/06/28 10:04:56;;;;;;;6.93;1.65;;;;;;;;;;5046009;28;20032;-72
2023/06/28 10:07:23;;;;;;;9.88;1.73;;;;;;;;;;5045662;28;20485;-72
2023/06/28 10:09:48;;;;;;;8.13;2.00;;;;;;;;;;5046932;28;20029;-72
2023/06/28 10:12:15;;;;;;;11.35;2.00;;;;;;;;;;5049616;28;20020;-72
2023/06/28 10:14:44;;;;;;;10.40;2.53;;;;;;;;;;5051075;28;20020;-72
2023/06/28 10:17:10;;;;;;;7.35;2.22;;;;;;;;;;5050268;28;20029;-72
2023/06/28 10:19:36;;;;;;;5.45;2.25;;;;;;;;;;5048463;28;20025;-72
2023/06/28 10:22:01;;;;;;;11.30;2.88;;;;;;;;;;5050331;28;20021;-72
2023/06/28 10:24:31;;;;;;;13.45;2.80;;;;;;;;;;5054372;28;20136;-72
2023/06/28 10:26:58;;;;;;;8.32;2.42;;;;;;;;;;5049418;28;20020;-72
2023/06/28 10:29:23;;;;;;;9.95;2.10;;;;;;;;;;5050531;28;20055;-72
2023/06/28 10:31:49;;;;;;;10.48;3.17;;;;;;;;;;5050975;28;20024;-72
2023/06/28 10:34:14;;;;;;;8.00;2.38;;;;;;;;;;5048892;28;20025;-72
2023/06/28 10:36:39;;;;;;;8.55;2.70;;;;;;;;;;5050174;28;20051;-72
2023/06/28 10:39:06;;;;;;;7.63;2.90;;;;;;;;;;5049106;28;20394;-72
2023/06/28 10:41:31;;;;;;;11.60;1.92;;;;;;;;;;5049427;28;20025;-73
2023/06/28 10:44:04;;;;;;;7.40;2.22;;;;;;;;;;5061848;28;20535;-72
2023/06/28 10:46:30;;;;;;;7.90;2.42;;;;;;;;;;5050446;28;20024;-72
2023/06/28 10:48:57;;;;;;;12.20;2.28;;;;;;;;;;5050936;28;20029;-72
2023/06/28 10:51:25;;;;;;;8.40;2.13;;;;;;;;;;5050156;28;20024;-72
2023/06/28 10:53:52;;;;;;;9.05;2.42;;;;;;;;;;5050390;28;20622;-72
2023/06/28 10:56:18;;;;;;;10.95;3.53;;;;;;;;;;5048346;28;20116;-72
2023/06/28 10:58:44;;;;;;;5.95;2.15;;;;;;;;;;5046798;28;20052;-72
2023/06/28 11:01:13;;;;;;;8.20;2.00;;;;;;;;;;5050238;28;20497;-72
2023/06/28 11:03:44;;;;;;;18.50;3.15;;;;;;;;;;5049616;28;20486;-72
2023/06/28 11:06:13;;;;;;;6.13;1.63;;;;;;;;;;5050365;28;20206;-72
2023/06/28 11:08:42;;;;;;;11.95;2.72;;;;;;;;;;5050727;28;20119;-72
2023/06/28 11:11:08;;;;;;;11.88;2.70;;;;;;;;;;5049563;28;20047;-72
2023/06/28 11:13:39;;;;;;;10.13;2.50;;;;;;;;;;5049716;28;20074;-72
2023/06/28 11:16:09;;;;;;;7.25;2.90;;;;;;;;;;5046302;28;20025;-72
2023/06/28 11:18:35;;;;;;;13.23;2.70;;;;;;;;;;5048898;28;20016;-72
2023/06/28 11:21:01;;;;;;;8.90;2.95;;;;;;;;;;5049958;28;20029;-72
2023/06/28 11:23:34;;;;;;;10.25;2.33;;;;;;;;;;5050836;28;20043;-72
2023/06/28 11:26:02;;;;;;;10.13;2.20;;;;;;;;;;5049061;28;20017;-72
2023/06/28 11:28:28;;;;;;;7.70;2.35;;;;;;;;;;5049918;28;20266;-72
2023/06/28 11:30:54;;;;;;;7.45;2.30;;;;;;;;;;5049426;28;20047;-72
2023/06/28 11:33:20;;;;;;;8.82;2.58;;;;;;;;;;5048605;28;20052;-72
2023/06/28 11:35:45;;;;;;;9.88;2.25;;;;;;;;;;5050229;28;20059;-72
2023/06/28 11:38:11;;;;;;;13.27;2.83;;;;;;;;;;5050015;28;20032;-72
2023/06/28 11:40:36;;;;;;;22.10;2.85;;;;;;;;;;5049136;28;20099;-72
2023/06/28 11:43:01;;;;;;;5.10;2.58;;;;;;;;;;5049938;28;20474;-72
2023/06/28 11:45:32;;;;;;;6.68;2.33;;;;;;;;;;5049344;28;20029;-72
2023/06/28 11:47:57;;;;;;;13.50;2.80;;;;;;;;;;5046790;28;20013;-72
2023/06/28 11:50:22;;;;;;;8.70;2.17;;;;;;;;;;5050021;28;20485;-72
2023/06/28 11:52:48;;;;;;;14.87;2.60;;;;;;;;;;5050099;28;20504;-72
2023/06/28 11:55:14;;;;;;;4.03;2.22;;;;;;;;;;5044450;28;20352;-72
2023/06/28 11:57:43;;;;;;;7.90;2.83;;;;;;;;;;5046103;28;20013;-72
2023/06/28 12:00:09;;;;;;;15.27;2.92;;;;;;;;;;5043159;28;20029;-72
2023/06/28 12:02:45;;;;;;;6.95;1.63;;;;;;;;;;5042280;28;20074;-72
2023/06/28 12:05:10;;;;;;;15.57;3.20;;;;;;;;;;5047904;28;20565;-72
2023/06/28 12:07:36;;;;;;;8.80;3.07;;;;;;;;;;5048243;28;20092;-72
2023/06/28 12:10:01;;;;;;;10.35;2.78;;;;;;;;;;5045065;28;20044;-72
2023/06/28 12:12:35;;;;;;;8.00;2.20;;;;;;;;;;5048404;28;20082;-72
2023/06/28 12:15:00;;;;;;;15.48;3.05;;;;;;;;;;5046362;28;20119;-72
2023/06/28 12:17:25;;;;;;;8.75;2.75;;;;;;;;;;5045461;28;20136;-73
2023/06/28 12:19:52;;;;;;;11.48;2.45;;;;;;;;;;5048914;28;20009;-73
2023/06/28 12:22:18;;;;;;;14.35;2.85;;;;;;;;;;5046666;28;20013;-72
2023/06/28 12:24:43;;;;;;;7.53;2.67;;;;;;;;;;5049323;28;20028;-72
2023/06/28 12:27:08;;;;;;;10.38;3.17;;;;;;;;;;5046836;28;22082;-72
2023/06/28 12:29:37;;;;;;;11.82;3.20;;;;;;;;;;5046902;28;20032;-72
2023/06/28 12:32:06;;;;;;;7.47;3.10;;;;;;;;;;5048931;28;20032;-72
2023/06/28 12:34:34;;;;;;;5.57;2.45;;;;;;;;;;5052806;28;20031;-73
2023/06/28 12:37:09;;;;;;;10.65;3.20;;;;;;;;;;5051983;28;20475;-73
2023/06/28 12:39:37;;;;;;;9.23;3.40;;;;;;;;;;5048780;28;20020;-72
2023/06/28 12:42:06;;;;;;;9.98;4.38;;;;;;;;;;5051714;28;20363;-73
2023/06/28 12:44:47;;;;;;;12.15;3.47;;;;;;;;;;5052412;28;20063;-71
2023/06/28 12:47:12;;;;;;;11.10;4.20;;;;;;;;;;5049929;28;20024;-73
2023/06/28 12:49:37;;;;;;;12.43;4.03;;;;;;;;;;5052629;28;20362;-73
2023/06/28 12:52:03;;;;;;;13.27;3.25;;;;;;;;;;5051044;28;20268;-73
2023/06/28 12:54:28;;;;;;;14.80;3.92;;;;;;;;;;5050753;28;20102;-73
2023/06/28 12:56:53;;;;;;;16.63;4.18;;;;;;;;;;5053606;28;20025;-73
2023/06/28 12:59:19;;;;;;;15.17;3.73;;;;;;;;;;5051078;28;20032;-73
2023/06/28 13:01:44;;;;;;;17.60;3.40;;;;;;;;;;5049983;28;20280;-73
2023/06/28 13:04:11;;;;;;;12.43;3.70;;;;;;;;;;5051822;28;20481;-73
2023/06/28 13:06:36;;;;;;;13.73;4.15;;;;;;;;;;5052292;28;20767;-73
2023/06/28 13:09:01;;;;;;;15.43;3.37;;;;;;;;;;5050955;28;20017;-72
2023/06/28 13:11:31;;;;;;;19.90;3.75;;;;;;;;;;5051516;28;20021;-73
2023/06/28 13:13:56;;;;;;;16.30;3.60;;;;;;;;;;5049961;28;20064;-73
2023/06/28 13:16:21;;;;;;;15.18;3.35;;;;;;;;;;5050408;28;20399;-73
2023/06/28 13:18:46;;;;;;;12.43;3.33;;;;;;;;;;5051998;28;20013;-72
2023/06/28 13:21:11;;;;;;;12.43;3.53;;;;;;;;;;5050127;28;20021;-73
2023/06/28 13:23:37;;;;;;;12.55;3.65;;;;;;;;;;5051921;28;20259;-73
2023/06/28 13:26:02;;;;;;;9.07;4.00;;;;;;;;;;5049912;28;20500;-71
2023/06/28 13:28:27;;;;;;;11.20;3.27;;;;;;;;;;5047630;28;20819;-73
2023/06/28 13:30:52;;;;;;;9.63;3.90;;;;;;;;;;5049767;28;20301;-72
2023/06/28 13:33:17;;;;;;;8.93;3.53;;;;;;;;;;5047849;28;20299;-73
2023/06/28 13:35:43;;;;;;;12.37;3.17;;;;;;;;;;5049134;28;20028;-73
2023/06/28 13:38:08;;;;;;;16.50;3.17;;;;;;;;;;5049287;28;20104;-73
2023/06/28 13:40:33;;;;;;;12.53;3.37;;;;;;;;;;5049803;28;20013;-73
2023/06/28 13:42:58;;;;;;;13.37;3.57;;;;;;;;;;5050388;28;20022;-73
2023/06/28 13:45:23;;;;;;;14.60;4.10;;;;;;;;;;5050776;28;20235;-73
2023/06/28 13:47:48;;;;;;;13.23;4.15;;;;;;;;;;5047201;28;20742;-73
2023/06/28 13:50:14;;;;;;;19.77;3.80;;;;;;;;;;5048007;28;20078;-73
2023/06/28 13:52:40;;;;;;;13.63;3.80;;;;;;;;;;5047544;28;20385;-73
2023/06/28 13:55:05;;;;;;;17.45;4.50;;;;;;;;;;5047804;28;20021;-71
2023/06/28 13:57:31;;;;;;;8.27;3.20;;;;;;;;;;5050136;28;20091;-72
2023/06/28 13:59:56;;;;;;;11.82;3.88;;;;;;;;;;5050906;28;20482;-73
2023/06/28 14:02:21;;;;;;;16.83;4.10;;;;;;;;;;5050220;28;20053;-73
2023/06/28 14:04:46;;;;;;;10.97;3.50;;;;;;;;;;5051307;28;20092;-74
2023/06/28 14:07:12;;;;;;;15.37;3.67;;;;;;;;;;5048320;28;20458;-72
2023/06/28 14:09:37;;;;;;;26.67;4.10;;;;;;;;;;5046711;28;20021;-73
2023/06/28 14:12:03;;;;;;;11.77;3.83;;;;;;;;;;5048819;28;20750;-74
2023/06/28 14:14:28;;;;;;;22.25;4.05;;;;;;;;;;5048335;28;20768;-72
2023/06/28 14:16:53;;;;;;;11.17;3.87;;;;;;;;;;5050753;28;20052;-73
2023/06/28 14:19:19;;;;;;;13.67;4.90;;;;;;;;;;5050455;28;20310;-73
2023/06/28 14:21:44;;;;;;;11.97;4.07;;;;;;;;;;5049994;28;20283;-72
2023/06/28 14:24:10;;;;;;;11.32;3.40;;;;;;;;;;5049046;28;20020;-73
2023/06/28 14:26:36;;;;;;;20.80;4.00;;;;;;;;;;5050749;28;20024;-72
2023/06/28 14:29:03;;;;;;;12.13;4.43;;;;;;;;;;5049400;28;20024;-73